createdAt,value
2023-05-19T00:04:42.021Z,7.00
2023-05-19T00:09:32.594Z,6.72
2023-05-19T00:14:22.953Z,6.55
2023-05-19T00:19:14.382Z,8.00
2023-05-19T00:24:07.106Z,5.25
2023-05-19T00:28:59.727Z,4.68
2023-05-19T00:33:50.035Z,7.65
2023-05-19T00:38:41.326Z,6.65
2023-05-19T00:43:34.514Z,7.17
2023-05-19T00:48:24.745Z,5.95
2023-05-19T00:53:15.693Z,6.18
2023-05-19T00:58:08.640Z,4.23
2023-05-19T01:03:11.600Z,6.17
2023-05-19T01:08:03.001Z,6.88
2023-05-19T01:12:53.372Z,7.22
2023-05-19T01:17:54.833Z,7.97
2023-05-19T01:23:17.012Z,6.37
2023-05-19T01:28:29.245Z,7.05
2023-05-19T01:33:24.416Z,7.30
2023-05-19T01:38:19.446Z,8.05
2023-05-19T01:43:14.258Z,9.30
2023-05-19T01:48:07.233Z,7.63
2023-05-19T01:53:04.626Z,10.27
2023-05-19T01:58:05.721Z,7.47
2023-05-19T02:03:01.718Z,6.70
2023-05-19T02:07:59.074Z,6.82
2023-05-19T02:12:59.636Z,7.10
2023-05-19T02:17:52.220Z,7.88
2023-05-19T02:22:43.037Z,5.40
2023-05-19T02:27:32.940Z,7.22
2023-05-19T02:32:25.710Z,6.47
2023-05-19T02:37:15.830Z,8.32
2023-05-19T02:42:06.306Z,6.78
2023-05-19T02:46:56.286Z,7.10
2023-05-19T02:51:48.777Z,8.40
2023-05-19T02:56:39.019Z,8.13
2023-05-19T03:01:29.042Z,7.20
2023-05-19T03:06:20.194Z,8.15
2023-05-19T03:11:12.675Z,7.13
2023-05-19T03:16:03.673Z,9.10
2023-05-19T03:20:54.134Z,9.43
2023-05-19T03:25:44.092Z,9.13
2023-05-19T03:30:37.691Z,6.75
2023-05-19T03:35:41.368Z,8.57
2023-05-19T03:40:33.999Z,9.32
2023-05-19T03:45:28.677Z,7.15
2023-05-19T03:50:21.894Z,9.27
2023-05-19T03:55:16.615Z,8.32
2023-05-19T04:00:11.399Z,13.13
2023-05-19T04:05:06.047Z,9.18
2023-05-19T04:09:59.066Z,9.20
2023-05-19T05:08:40.616Z,9.60
2023-05-19T07:25:23.374Z,8.02
2023-05-19T07:30:17.496Z,7.63
2023-05-19T07:35:09.513Z,10.27
2023-05-19T07:39:59.478Z,9.32
2023-05-19T07:44:52.053Z,8.88
2023-05-19T07:49:42.027Z,8.90
2023-05-19T07:54:31.917Z,9.80
2023-05-19T07:59:21.700Z,7.60
2023-05-19T08:04:14.599Z,5.88
2023-05-19T08:09:05.786Z,6.93
2023-05-19T08:13:55.950Z,4.53
2023-05-19T08:18:46.932Z,8.18
2023-05-19T08:23:40.204Z,5.90
2023-05-19T08:28:30.094Z,6.13
2023-05-19T08:33:21.661Z,6.20
2023-05-19T08:38:13.538Z,7.50
2023-05-19T08:43:06.554Z,4.60
2023-05-19T08:47:57.058Z,4.50
2023-05-19T08:52:56.201Z,3.03
2023-05-19T08:57:46.935Z,4.28
2023-05-19T09:02:50.566Z,3.80
2023-05-19T09:07:52.154Z,4.40
2023-05-19T09:12:42.098Z,5.03
2023-05-19T09:17:32.103Z,6.57
2023-05-19T10:11:08.707Z,4.72
2023-05-19T10:16:00.786Z,4.50
2023-05-19T10:20:54.968Z,2.47
2023-05-19T10:25:46.215Z,2.25
2023-05-19T10:30:39.871Z,6.07
2023-05-19T10:35:51.935Z,2.58
2023-05-19T10:40:59.173Z,2.13
2023-05-19T10:45:52.231Z,3.13
2023-05-19T10:50:44.978Z,3.10
2023-05-19T11:25:04.305Z,4.07
2023-05-19T11:29:56.674Z,3.53
2023-05-19T11:34:52.978Z,3.47
2023-05-19T11:39:43.938Z,2.53
2023-05-19T11:44:36.751Z,1.48
2023-05-19T11:49:27.073Z,3.33
2023-05-19T11:54:22.394Z,3.08
2023-05-19T11:59:12.693Z,2.45
2023-05-19T12:04:03.859Z,4.65
2023-05-19T12:08:54.335Z,2.80
2023-05-19T12:13:47.402Z,3.03
2023-05-19T12:18:40.573Z,3.15
2023-05-19T12:23:32.191Z,1.98
2023-05-19T12:28:23.038Z,2.72
2023-05-19T12:33:19.098Z,4.55
2023-05-19T12:38:10.060Z,2.35
2023-05-19T12:47:53.085Z,2.47
2023-05-19T12:52:51.429Z,2.15
2023-05-19T12:57:43.463Z,2.58
2023-05-19T13:02:34.508Z,3.08
2023-05-19T13:07:24.626Z,4.70
2023-05-19T13:12:19.021Z,3.15
2023-05-19T13:17:09.224Z,1.85
2023-05-19T13:21:59.712Z,2.90
2023-05-19T13:26:49.645Z,3.05
2023-05-19T13:31:42.409Z,2.97
2023-05-19T13:36:33.490Z,2.10
2023-05-19T13:41:29.557Z,2.50
2023-05-19T13:46:26.607Z,5.90
2023-05-19T13:51:25.653Z,1.75
2023-05-19T13:56:15.978Z,4.28
2023-05-19T14:01:05.883Z,2.38
2023-05-19T14:05:55.823Z,5.53
2023-05-19T14:10:49.498Z,4.28
2023-05-19T14:15:39.313Z,4.88
2023-05-19T14:20:29.568Z,4.40
2023-05-19T14:25:19.517Z,4.35
2023-05-19T14:30:13.124Z,3.17
2023-05-19T14:35:02.975Z,5.50
2023-05-19T14:39:53.002Z,3.45
2023-05-19T14:44:42.896Z,3.20
2023-05-19T14:49:35.248Z,1.35
2023-05-19T14:54:25.264Z,4.00
2023-05-19T14:59:15.401Z,2.47
2023-05-19T15:04:05.297Z,3.42
2023-05-19T15:08:57.860Z,5.60
2023-05-19T15:13:47.720Z,5.63
2023-05-19T15:18:37.838Z,6.68
2023-05-19T15:23:27.832Z,4.20
2023-05-19T15:28:20.600Z,2.72
2023-05-19T15:33:10.395Z,5.57
2023-05-19T15:38:05.455Z,3.70
2023-05-19T15:42:55.662Z,3.90
2023-05-19T15:47:48.729Z,4.68
2023-05-19T15:52:38.640Z,2.80
2023-05-19T15:57:28.520Z,3.10
2023-05-19T16:02:18.430Z,4.10
2023-05-19T16:07:10.993Z,2.85
2023-05-19T16:12:00.982Z,5.47
2023-05-19T16:16:51.205Z,4.50
2023-05-19T16:21:41.217Z,4.35
2023-05-19T16:26:34.538Z,4.78
2023-05-19T16:31:24.363Z,3.42
2023-05-19T16:36:14.210Z,3.53
2023-05-19T16:41:05.437Z,3.00
2023-05-19T16:45:57.917Z,2.47
2023-05-19T16:50:50.348Z,2.42
2023-05-19T16:55:40.218Z,2.50
2023-05-19T17:00:31.512Z,1.10
2023-05-19T17:05:24.103Z,2.92
2023-05-19T17:10:14.647Z,3.40
2023-05-19T17:15:04.693Z,3.42
2023-05-19T17:19:56.903Z,4.78
2023-05-19T17:24:49.409Z,3.45
2023-05-19T17:29:39.166Z,6.05
2023-05-19T17:34:30.218Z,2.33
2023-05-19T17:39:20.406Z,3.00
2023-05-19T17:44:13.141Z,4.35
2023-05-19T17:49:03.001Z,3.00
2023-05-19T17:53:53.520Z,3.85
2023-05-19T17:58:44.513Z,1.85
2023-05-19T18:03:38.617Z,4.20
2023-05-19T18:08:29.513Z,3.97
2023-05-19T18:13:19.375Z,2.75
2023-05-19T18:18:10.778Z,3.25
2023-05-19T18:23:03.589Z,3.90
2023-05-19T18:27:55.948Z,2.30
2023-05-19T18:32:45.849Z,4.95
2023-05-19T18:57:00.386Z,3.70
2023-05-19T19:01:54.126Z,3.03
2023-05-19T19:06:44.156Z,4.07
2023-05-19T19:11:36.946Z,2.10
2023-05-19T19:16:27.267Z,6.13
2023-05-19T19:21:20.356Z,9.10
2023-05-19T19:26:11.168Z,5.03
2023-05-19T19:31:01.337Z,7.05
2023-05-19T19:35:51.460Z,7.07
2023-05-19T19:40:46.129Z,8.00
2023-05-19T19:45:39.528Z,7.22
